Time;durP1;ratioP1;P1;durP2;ratioP2;P2;SDS_P1;SDS_P2;PMS_P1;PMS_P2;Temp;Humidity;BMP_temperature;BMP_pressure;BME280_temperature;BME280_humidity;BME280_pressure;Samples;Min_cycle;Max_cycle;Signal;HPM_P1;HPM_P2
2021/03/11 00:00:11;;;;;;;28.73;22.73;;;7.00;91.70;;;;;;5071685;28;20452;-71
2021/03/11 00:02:37;;;;;;;29.90;22.00;;;7.00;91.70;;;;;;5071346;28;20040;-70
2021/03/11 00:05:05;;;;;;;32.77;23.07;;;7.00;91.60;;;;;;5071382;28;20318;-70
2021/03/11 00:07:31;;;;;;;30.67;21.87;;;7.00;91.50;;;;;;5071760;28;20040;-70
2021/03/11 00:09:56;;;;;;;27.77;21.37;;;7.10;91.70;;;;;;5069518;28;20294;-69
2021/03/11 00:12:22;;;;;;;29.53;21.03;;;7.10;91.50;;;;;;5071667;28;20057;-70
2021/03/11 00:14:48;;;;;;;29.13;20.13;;;7.10;91.60;;;;;;5071475;28;20055;-69
2021/03/11 00:17:13;;;;;;;30.03;21.83;;;7.10;91.50;;;;;;5070897;28;20052;-69
2021/03/11 00:19:39;;;;;;;28.07;21.53;;;7.10;91.50;;;;;;5071364;28;20048;-69
2021/03/11 00:22:05;;;;;;;27.40;21.20;;;7.10;91.40;;;;;;5070652;28;20489;-70
2021/03/11 00:24:31;;;;;;;29.43;19.87;;;7.10;91.50;;;;;;5071539;28;20497;-70
2021/03/11 00:26:56;;;;;;;30.23;21.13;;;7.10;91.60;;;;;;5071242;28;20306;-70
2021/03/11 00:29:23;;;;;;;26.77;20.50;;;7.10;91.60;;;;;;5070791;28;20169;-70
2021/03/11 00:31:48;;;;;;;27.57;21.17;;;7.10;91.60;;;;;;5071300;28;20075;-70
2021/03/11 00:34:14;;;;;;;26.77;21.10;;;7.10;91.60;;;;;;5071325;28;20339;-70
2021/03/11 00:36:40;;;;;;;26.90;19.97;;;7.10;91.70;;;;;;5070398;28;20070;-70
2021/03/11 00:39:07;;;;;;;26.90;20.27;;;7.10;91.70;;;;;;5071085;28;20049;-69
2021/03/11 00:41:33;;;;;;;25.73;19.27;;;7.10;91.70;;;;;;5077561;28;20558;-70
2021/03/11 00:43:59;;;;;;;25.37;18.57;;;7.10;91.80;;;;;;5077023;28;20656;-70
2021/03/11 00:46:25;;;;;;;26.97;19.10;;;7.10;91.80;;;;;;5077893;28;20294;-69
2021/03/11 00:48:50;;;;;;;24.03;18.97;;;7.10;91.80;;;;;;5078077;28;20310;-70
2021/03/11 00:51:16;;;;;;;24.10;17.40;;;7.10;91.90;;;;;;5077434;28;20497;-69
2021/03/11 00:53:42;;;;;;;27.27;18.87;;;7.10;91.90;;;;;;5077589;28;20079;-70
2021/03/11 00:56:07;;;;;;;23.60;18.47;;;7.10;91.90;;;;;;5077911;28;20477;-70
2021/03/11 00:58:33;;;;;;;22.83;17.53;;;7.10;91.90;;;;;;5077092;28;20128;-69
2021/03/11 01:00:59;;;;;;;23.30;16.50;;;7.00;91.90;;;;;;5077817;28;20048;-70
2021/03/11 01:03:25;;;;;;;18.77;15.53;;;7.10;92.00;;;;;;5077736;28;20044;-70
2021/03/11 01:05:51;;;;;;;21.20;15.83;;;7.10;91.90;;;;;;5076981;28;20299;-69
2021/03/11 01:08:18;;;;;;;22.23;16.77;;;7.10;91.90;;;;;;5077504;28;20341;-70
2021/03/11 01:10:43;;;;;;;25.03;17.47;;;7.10;91.80;;;;;;5077778;28;20287;-70
2021/03/11 01:13:09;;;;;;;21.43;16.53;;;7.20;91.90;;;;;;5076804;28;20353;-70
2021/03/11 01:15:39;;;;;;;20.20;16.40;;;7.10;91.90;;;;;;5077882;28;20046;-70
2021/03/11 01:18:06;;;;;;;20.73;16.77;;;7.20;91.90;;;;;;5077486;28;20055;-70
2021/03/11 01:20:32;;;;;;;19.97;16.07;;;7.20;92.00;;;;;;5077312;28;20294;-70
2021/03/11 01:22:57;;;;;;;19.77;15.97;;;7.20;92.00;;;;;;5077386;28;20310;-70
2021/03/11 01:25:23;;;;;;;19.93;15.67;;;7.20;92.00;;;;;;5076923;28;20048;-70
2021/03/11 01:27:49;;;;;;;22.27;16.63;;;7.20;91.90;;;;;;5077413;28;20048;-70
2021/03/11 01:30:15;;;;;;;21.27;16.47;;;7.20;91.90;;;;;;5077349;28;20448;-70
2021/03/11 01:32:41;;;;;;;21.10;16.40;;;7.20;92.00;;;;;;5076816;28;20048;-71
2021/03/11 01:35:07;;;;;;;22.00;17.20;;;7.20;91.90;;;;;;5077314;28;20290;-71
2021/03/11 01:37:33;;;;;;;23.90;17.00;;;7.20;92.10;;;;;;5077451;28;20056;-70
2021/03/11 01:39:59;;;;;;;21.10;16.60;;;7.20;92.10;;;;;;5076508;28;20704;-70
2021/03/11 01:42:25;;;;;;;21.97;18.03;;;7.20;92.20;;;;;;5076958;28;20048;-70
2021/03/11 01:44:50;;;;;;;21.40;16.43;;;7.20;92.20;;;;;;5077375;28;20052;-70
2021/03/11 01:47:16;;;;;;;22.80;17.47;;;7.20;92.20;;;;;;5076437;28;20048;-70
2021/03/11 01:49:42;;;;;;;23.63;16.83;;;7.20;92.20;;;;;;5077127;28;20390;-70
2021/03/11 01:52:08;;;;;;;24.87;17.53;;;7.20;92.40;;;;;;5074085;28;20044;-71
2021/03/11 01:54:34;;;;;;;25.13;17.40;;;7.20;92.30;;;;;;5073764;28;20078;-69
2021/03/11 01:57:01;;;;;;;19.53;13.77;;;7.10;92.50;;;;;;5073903;28;20051;-71
2021/03/11 01:59:27;;;;;;;23.20;16.83;;;7.10;92.50;;;;;;5074268;28;20383;-70
2021/03/11 02:01:57;;;;;;;21.73;15.90;;;7.10;92.50;;;;;;5073062;28;20326;-70
2021/03/11 02:04:23;;;;;;;22.33;16.83;;;7.10;92.40;;;;;;5073804;28;20356;-70
2021/03/11 02:06:48;;;;;;;20.97;16.30;;;7.20;92.40;;;;;;5074057;28;20291;-70
2021/03/11 02:09:14;;;;;;;19.83;15.37;;;7.20;92.40;;;;;;5072991;28;20091;-70
2021/03/11 02:11:46;;;;;;;23.00;16.70;;;7.20;92.40;;;;;;5073877;28;20067;-70
2021/03/11 02:14:31;;;;;;;;;;;7.20;92.50;;;;;;5074176;28;20071;-70
2021/03/11 02:17:01;;;;;;;19.10;15.13;;;7.20;92.90;;;;;;5072278;28;19943;-70
2021/03/11 02:19:38;;;;;;;20.23;14.73;;;7.30;92.60;;;;;;5073911;28;20385;-70
2021/03/11 02:22:17;;;;;;;19.90;14.67;;;7.30;92.50;;;;;;5072809;28;20303;-70
2021/03/11 02:24:58;;;;;;;21.07;15.90;;;7.30;92.50;;;;;;5073678;28;20352;-70
2021/03/11 02:27:52;;;;;;;19.60;15.30;;;7.30;92.50;;;;;;5073339;28;20299;-70
2021/03/11 02:30:18;;;;;;;19.23;14.17;;;7.40;92.70;;;;;;5072738;28;20310;-71
2021/03/11 02:32:45;;;;;;;19.27;15.50;;;7.40;92.40;;;;;;5073222;28;20377;-70
2021/03/11 02:35:12;;;;;;;19.73;15.67;;;7.40;92.40;;;;;;5073263;28;20093;-69
2021/03/11 02:37:44;;;;;;;20.90;16.30;;;7.50;92.80;;;;;;5072469;28;20691;-70
2021/03/11 02:40:14;;;;;;;20.98;15.18;;;7.50;92.40;;;;;;5073272;28;20439;-70
2021/03/11 02:42:43;;;;;;;21.50;14.63;;;7.50;92.30;;;;;;5072532;28;20044;-70
2021/03/11 02:45:12;;;;;;;18.37;14.10;;;7.50;92.30;;;;;;5073011;28;20127;-69
2021/03/11 02:47:40;;;;;;;21.97;15.83;;;7.60;92.30;;;;;;5073135;28;20790;-70
2021/03/11 02:50:06;;;;;;;17.73;14.07;;;7.60;92.40;;;;;;5072227;28;20290;-70
2021/03/11 02:52:34;;;;;;;17.03;13.83;;;7.60;92.30;;;;;;5073120;28;20385;-71
2021/03/11 02:55:01;;;;;;;17.80;14.33;;;7.60;92.30;;;;;;5072810;28;20801;-70
2021/03/11 02:57:28;;;;;;;18.70;12.90;;;7.60;92.30;;;;;;5072284;28;20791;-70
2021/03/11 02:59:57;;;;;;;18.10;13.07;;;7.70;92.20;;;;;;5072670;28;20322;-69
2021/03/11 03:02:23;;;;;;;16.70;13.20;;;7.70;92.20;;;;;;5072521;28;20309;-70
2021/03/11 03:04:52;;;;;;;18.47;13.33;;;7.70;92.20;;;;;;5071557;28;20845;-70
2021/03/11 03:07:19;;;;;;;16.13;12.90;;;7.70;92.20;;;;;;5072798;28;20359;-70
2021/03/11 03:09:47;;;;;;;18.40;13.30;;;7.70;92.10;;;;;;5072719;28;20347;-70
2021/03/11 03:12:15;;;;;;;16.83;12.53;;;7.70;92.10;;;;;;5071819;28;20303;-70
2021/03/11 03:14:46;;;;;;;18.57;13.50;;;7.70;92.20;;;;;;5072358;28;20659;-70
2021/03/11 03:17:16;;;;;;;14.40;12.00;;;7.70;92.20;;;;;;5072497;28;20386;-69
2021/03/11 03:19:43;;;;;;;16.73;12.57;;;7.70;92.20;;;;;;5071475;28;20413;-70
2021/03/11 03:22:10;;;;;;;15.70;12.67;;;7.70;92.10;;;;;;5072455;28;20295;-70
2021/03/11 03:24:36;;;;;;;16.57;12.77;;;7.60;92.10;;;;;;5072503;28;20385;-70
2021/03/11 03:27:02;;;;;;;16.20;12.90;;;7.70;92.20;;;;;;5071177;28;20421;-71
2021/03/11 03:29:27;;;;;;;14.97;11.03;;;7.70;92.20;;;;;;5072319;28;20397;-70
2021/03/11 03:31:53;;;;;;;13.50;10.83;;;7.60;92.20;;;;;;5071262;28;20057;-70
2021/03/11 03:34:19;;;;;;;13.17;10.17;;;7.70;92.20;;;;;;5072209;28;20051;-70
2021/03/11 03:36:46;;;;;;;13.87;10.73;;;7.70;92.20;;;;;;5072215;28;20045;-70
2021/03/11 03:39:11;;;;;;;12.97;10.20;;;7.70;92.20;;;;;;5071271;28;20123;-70
2021/03/11 03:41:42;;;;;;;15.53;11.10;;;7.70;92.20;;;;;;5071905;28;20437;-70
2021/03/11 03:44:11;;;;;;;13.07;11.30;;;7.70;92.20;;;;;;5071919;28;20048;-70
2021/03/11 03:46:39;;;;;;;14.43;11.53;;;7.70;92.20;;;;;;5071257;28;20805;-70
2021/03/11 03:49:09;;;;;;;13.97;10.47;;;7.70;92.20;;;;;;5071880;28;20295;-70
2021/03/11 03:51:37;;;;;;;14.47;11.43;;;7.70;92.30;;;;;;5072128;28;20322;-70
2021/03/11 03:54:18;;;;;;;11.60;9.70;;;7.60;92.20;;;;;;5070734;28;20381;-70
2021/03/11 03:57:20;;;;;;;12.13;10.20;;;7.70;92.40;;;;;;5071694;28;20306;-70
2021/03/11 03:59:50;;;;;;;9.93;8.60;;;7.70;92.40;;;;;;5071699;28;20393;-70
2021/03/11 04:02:17;;;;;;;12.43;10.20;;;7.70;92.40;;;;;;5071113;28;20036;-70
2021/03/11 04:04:47;;;;;;;12.20;10.27;;;7.70;92.30;;;;;;5071533;28;20298;-70
2021/03/11 04:07:17;;;;;;;13.70;10.83;;;7.80;92.30;;;;;;5070758;28;20298;-71
2021/03/11 04:09:44;;;;;;;11.33;9.37;;;7.80;92.40;;;;;;5071653;28;20353;-70
2021/03/11 04:12:10;;;;;;;13.03;10.20;;;7.80;92.30;;;;;;5071689;28;20300;-70
2021/03/11 04:14:40;;;;;;;13.57;11.40;;;7.80;92.40;;;;;;5070428;28;20309;-70
2021/03/11 04:17:06;;;;;;;13.93;10.70;;;7.80;92.50;;;;;;5071473;28;20302;-71
2021/03/11 04:19:35;;;;;;;14.70;10.77;;;7.80;92.50;;;;;;5071484;28;20693;-70
2021/03/11 04:22:02;;;;;;;16.47;11.93;;;7.80;92.40;;;;;;5070623;28;20381;-70
2021/03/11 04:24:28;;;;;;;14.47;11.30;;;7.80;92.50;;;;;;5071874;28;20371;-71
2021/03/11 04:26:54;;;;;;;13.30;11.30;;;7.90;92.60;;;;;;5071437;28;20307;-70
2021/03/11 04:29:20;;;;;;;14.57;12.03;;;7.80;92.50;;;;;;5070692;28;20363;-70
2021/03/11 04:31:47;;;;;;;13.43;11.77;;;7.90;92.60;;;;;;5071311;28;20056;-70
2021/03/11 04:34:12;;;;;;;13.80;11.67;;;7.90;92.60;;;;;;5071319;28;20306;-70
2021/03/11 04:36:39;;;;;;;13.73;11.63;;;7.90;92.70;;;;;;5070843;28;20298;-70
2021/03/11 04:39:05;;;;;;;12.53;11.23;;;7.90;92.60;;;;;;5071321;28;20140;-70
2021/03/11 04:41:31;;;;;;;12.90;11.60;;;8.00;92.60;;;;;;5071165;28;20770;-70
2021/03/11 04:44:01;;;;;;;13.83;11.93;;;8.00;92.50;;;;;;5070591;28;20686;-70
2021/03/11 04:46:27;;;;;;;11.90;10.70;;;8.00;92.50;;;;;;5071293;28;20301;-71
2021/03/11 04:48:54;;;;;;;12.87;11.03;;;8.00;92.50;;;;;;5070920;28;20747;-70
2021/03/11 04:51:21;;;;;;;12.43;9.90;;;8.00;92.60;;;;;;5070516;28;20306;-72
2021/03/11 04:53:47;;;;;;;11.80;9.43;;;8.10;92.60;;;;;;5071137;28;20305;-70
2021/03/11 04:56:13;;;;;;;13.10;10.27;;;8.10;92.60;;;;;;5070372;28;20298;-70
2021/03/11 04:58:39;;;;;;;11.20;10.00;;;8.10;92.50;;;;;;5071253;28;20106;-70
2021/03/11 05:01:15;;;;;;;12.43;10.97;;;8.20;92.50;;;;;;5070945;28;20052;-71
2021/03/11 05:03:45;;;;;;;12.03;10.17;;;8.20;92.60;;;;;;5069969;28;20328;-70
2021/03/11 05:06:12;;;;;;;11.57;9.90;;;8.30;92.60;;;;;;5070747;28;20659;-70
2021/03/11 05:08:39;;;;;;;11.20;9.97;;;8.30;92.60;;;;;;5071134;28;20771;-70
2021/03/11 05:11:05;;;;;;;11.77;9.73;;;8.40;92.60;;;;;;5070455;28;20348;-70
2021/03/11 05:13:30;;;;;;;11.23;9.80;;;8.40;92.50;;;;;;5071112;28;20298;-70
2021/03/11 05:15:57;;;;;;;10.73;9.47;;;8.50;92.60;;;;;;5070720;28;20044;-70
2021/03/11 05:18:23;;;;;;;11.77;9.67;;;8.50;92.50;;;;;;5070021;28;20127;-70
2021/03/11 05:20:48;;;;;;;11.80;10.17;;;8.60;92.50;;;;;;5070610;28;20378;-70
2021/03/11 05:23:14;;;;;;;11.60;9.63;;;8.60;92.50;;;;;;5070827;28;20053;-69
2021/03/11 05:25:40;;;;;;;11.37;9.80;;;8.60;92.40;;;;;;5070253;28;20045;-70
2021/03/11 05:28:05;;;;;;;10.70;9.60;;;8.70;92.40;;;;;;5074529;28;20048;-70
2021/03/11 05:30:31;;;;;;;10.33;9.23;;;8.70;92.40;;;;;;5074699;28;20055;-70
2021/03/11 05:32:57;;;;;;;12.57;9.63;;;8.70;92.30;;;;;;5073555;28;20497;-71
2021/03/11 05:35:23;;;;;;;13.63;9.77;;;8.70;92.30;;;;;;5074571;28;20129;-70
2021/03/11 05:37:48;;;;;;;11.37;10.13;;;8.80;92.20;;;;;;5074241;28;20052;-71
2021/03/11 05:40:15;;;;;;;11.47;10.10;;;8.80;92.20;;;;;;5073247;28;20059;-70
2021/03/11 05:42:44;;;;;;;10.97;8.87;;;8.80;92.10;;;;;;5074267;28;20076;-70
2021/03/11 05:45:10;;;;;;;13.23;9.93;;;8.80;92.00;;;;;;5074083;28;20493;-70
2021/03/11 05:47:37;;;;;;;12.03;10.70;;;8.80;92.00;;;;;;5073939;28;20314;-70
2021/03/11 05:50:07;;;;;;;12.50;11.07;;;8.80;92.00;;;;;;5074038;28;20297;-70
2021/03/11 05:52:34;;;;;;;14.73;10.30;;;8.80;92.00;;;;;;5073629;28;20299;-70
2021/03/11 05:55:01;;;;;;;13.17;9.83;;;8.80;92.00;;;;;;5074094;28;20293;-70
2021/03/11 05:57:28;;;;;;;12.43;10.47;;;8.80;92.00;;;;;;5074201;28;20298;-70
2021/03/11 05:59:55;;;;;;;11.80;10.07;;;8.80;92.00;;;;;;5072885;28;20846;-70
2021/03/11 06:02:23;;;;;;;15.60;10.90;;;8.90;91.90;;;;;;5073819;28;20303;-70
2021/03/11 06:04:54;;;;;;;13.33;10.47;;;8.90;91.90;;;;;;5073820;28;20306;-69
2021/03/11 06:07:23;;;;;;;15.23;10.70;;;8.90;91.90;;;;;;5073124;28;20294;-70
2021/03/11 06:09:54;;;;;;;13.77;11.17;;;8.90;91.90;;;;;;5073642;28;20310;-70
2021/03/11 06:12:21;;;;;;;12.75;11.10;;;9.00;92.00;;;;;;5073581;28;20294;-70
2021/03/11 06:14:50;;;;;;;14.23;11.17;;;9.00;91.90;;;;;;5072887;28;20048;-70
2021/03/11 06:17:16;;;;;;;16.87;12.63;;;8.90;92.00;;;;;;5073664;28;20302;-69
2021/03/11 06:19:43;;;;;;;13.27;11.87;;;9.00;92.10;;;;;;5073502;28;20341;-70
2021/03/11 06:22:09;;;;;;;15.40;11.93;;;8.90;92.20;;;;;;5072509;28;20803;-70
2021/03/11 06:24:35;;;;;;;15.63;12.07;;;9.00;92.30;;;;;;5073611;28;20310;-70
2021/03/11 06:27:00;;;;;;;13.80;11.23;;;9.00;92.30;;;;;;5073299;28;20054;-69
2021/03/11 06:29:41;;;;;;;14.30;12.10;;;9.00;92.40;;;;;;5072683;28;20068;-69
2021/03/11 06:32:10;;;;;;;12.53;11.10;;;9.00;92.50;;;;;;5073243;28;20132;-69
2021/03/11 06:34:43;;;;;;;14.37;11.47;;;9.00;92.50;;;;;;5073301;28;20806;-70
2021/03/11 06:37:13;;;;;;;13.07;11.73;;;9.00;92.60;;;;;;5072816;28;20667;-70
2021/03/11 06:39:40;;;;;;;14.37;10.73;;;9.00;92.60;;;;;;5072589;28;20311;-70
2021/03/11 06:42:07;;;;;;;14.20;12.03;;;9.00;92.60;;;;;;5072143;28;20376;-69
2021/03/11 06:44:44;;;;;;;13.80;11.20;;;9.00;92.60;;;;;;5073240;28;20305;-69
2021/03/11 06:47:12;;;;;;;13.27;10.83;;;9.00;92.60;;;;;;5072971;28;20294;-69
2021/03/11 06:49:59;;;;;;;14.53;10.90;;;9.10;92.60;;;;;;5072411;28;20343;-70
2021/03/11 06:52:26;;;;;;;11.60;10.27;;;9.10;92.70;;;;;;5072991;28;20390;-70
2021/03/11 06:55:00;;;;;;;13.27;11.07;;;9.20;92.50;;;;;;5072849;28;20299;-70
2021/03/11 06:57:39;;;;;;;13.73;10.40;;;9.20;92.50;;;;;;5072069;28;20291;-70
2021/03/11 07:00:23;;;;;;;13.07;10.67;;;9.30;92.40;;;;;;5072371;28;20319;-71
2021/03/11 07:02:52;;;;;;;12.37;10.80;;;9.30;92.40;;;;;;5072133;28;20290;-69
2021/03/11 07:05:20;;;;;;;14.37;10.47;;;9.30;92.40;;;;;;5072510;28;20290;-70
2021/03/11 07:07:47;;;;;;;12.40;10.20;;;9.30;92.40;;;;;;5072089;28;20330;-70
2021/03/11 07:10:24;;;;;;;11.53;9.70;;;9.40;92.20;;;;;;5071436;28;20286;-70
2021/03/11 07:12:51;;;;;;;12.80;10.33;;;9.50;92.20;;;;;;5072157;28;20686;-70
2021/03/11 07:15:18;;;;;;;14.07;10.67;;;9.50;92.10;;;;;;5072396;28;20291;-70
2021/03/11 07:17:44;;;;;;;14.23;10.67;;;9.50;92.00;;;;;;5087129;28;20274;-71
2021/03/11 07:20:11;;;;;;;13.70;10.27;;;9.70;92.10;;;;;;5072229;28;20429;-71
2021/03/11 07:22:37;;;;;;;14.33;10.60;;;9.80;92.00;;;;;;5072465;28;20048;-70
2021/03/11 07:25:23;;;;;;;11.60;9.27;;;9.90;91.90;;;;;;5071008;28;20305;-71
2021/03/11 07:27:49;;;;;;;14.83;9.80;;;10.10;91.50;;;;;;5072316;28;20294;-71
2021/03/11 07:30:16;;;;;;;15.50;8.17;;;10.20;91.30;;;;;;5072258;28;20297;-72
2021/03/11 07:32:42;;;;;;;13.77;8.20;;;10.30;91.10;;;;;;5071146;28;20790;-72
2021/03/11 07:35:08;;;;;;;12.47;7.50;;;10.20;90.80;;;;;;5071951;28;20287;-71
2021/03/11 07:37:36;;;;;;;11.23;8.23;;;10.30;90.60;;;;;;5071981;28;20457;-71
2021/03/11 07:40:01;;;;;;;14.93;8.97;;;10.30;90.60;;;;;;5070791;28;20783;-72
2021/03/11 07:42:28;;;;;;;11.70;6.87;;;10.30;90.50;;;;;;5071916;28;20311;-71
2021/03/11 07:44:55;;;;;;;15.70;9.57;;;10.30;90.40;;;;;;5071815;28;20060;-71
2021/03/11 07:47:21;;;;;;;14.13;8.70;;;10.30;90.40;;;;;;5070867;28;20297;-69
2021/03/11 07:49:47;;;;;;;11.93;7.87;;;10.30;90.30;;;;;;5070725;28;20306;-70
2021/03/11 07:52:13;;;;;;;13.83;8.03;;;10.30;90.30;;;;;;5070791;28;20090;-70
2021/03/11 07:54:39;;;;;;;12.67;7.57;;;10.30;90.20;;;;;;5071489;28;20101;-70
2021/03/11 07:57:05;;;;;;;14.97;8.23;;;10.30;90.20;;;;;;5071598;28;20500;-70
2021/03/11 07:59:31;;;;;;;15.00;7.90;;;10.40;90.00;;;;;;5071260;28;20365;-70
2021/03/11 08:02:07;;;;;;;14.97;7.87;;;10.40;90.00;;;;;;5071374;28;20742;-70
2021/03/11 08:04:35;;;;;;;16.13;7.40;;;10.40;90.00;;;;;;5071659;28;20534;-70
2021/03/11 08:07:16;;;;;;;14.13;8.03;;;10.30;90.50;;;;;;5070707;28;20066;-70
2021/03/11 08:09:43;;;;;;;18.15;9.73;;;10.30;90.30;;;;;;5071520;28;20048;-70
2021/03/11 08:12:39;;;;;;;11.77;7.10;;;10.30;90.20;;;;;;5071414;28;20485;-70
2021/03/11 08:15:15;;;;;;;15.43;7.00;;;10.30;89.50;;;;;;5070691;28;20060;-70
2021/03/11 08:17:46;;;;;;;15.40;7.57;;;10.40;89.70;;;;;;5071369;28;20044;-71
2021/03/11 08:20:24;;;;;;;14.00;7.03;;;10.40;89.30;;;;;;5070648;28;20064;-71
2021/03/11 08:22:53;;;;;;;15.17;7.00;;;10.40;88.60;;;;;;5071122;28;20489;-70
2021/03/11 08:25:24;;;;;;;19.27;7.30;;;10.40;88.60;;;;;;5071238;28;20359;-71
2021/03/11 08:27:51;;;;;;;13.55;6.97;;;10.40;88.30;;;;;;5069896;28;20131;-70
2021/03/11 08:30:35;;;;;;;15.60;6.30;;;10.50;88.20;;;;;;5071504;28;20122;-70
2021/03/11 08:33:00;;;;;;;14.67;6.20;;;10.50;87.70;;;;;;5071207;28;20454;-71
2021/03/11 08:35:26;;;;;;;18.47;5.83;;;10.50;87.50;;;;;;5070457;28;20135;-71
2021/03/11 08:37:52;;;;;;;26.07;6.07;;;10.60;86.90;;;;;;5070863;28;20046;-71
2021/03/11 08:40:38;;;;;;;18.50;6.53;;;10.60;86.60;;;;;;5070711;28;20087;-71
2021/03/11 08:43:04;;;;;;;21.13;5.63;;;10.60;85.60;;;;;;5070379;28;20182;-70
2021/03/11 08:45:39;;;;;;;21.00;5.47;;;10.60;86.00;;;;;;5071492;28;20059;-70
2021/03/11 08:48:19;;;;;;;23.93;5.33;;;10.60;84.70;;;;;;5071179;28;20049;-70
2021/03/11 08:50:46;;;;;;;23.53;5.13;;;10.60;84.10;;;;;;5071061;28;20423;-69
2021/03/11 08:53:12;;;;;;;24.87;5.53;;;10.60;83.90;;;;;;5070956;28;20302;-71
2021/03/11 08:55:41;;;;;;;30.33;5.67;;;10.70;83.70;;;;;;5070579;28;20056;-70
2021/03/11 08:58:24;;;;;;;36.93;6.90;;;10.80;82.50;;;;;;5070959;28;20407;-70
2021/03/11 09:00:56;;;;;;;39.10;7.00;;;10.80;81.50;;;;;;5071200;28;20045;-71
2021/03/11 09:03:38;;;;;;;36.83;6.55;;;10.90;81.80;;;;;;5074040;28;20048;-71
2021/03/11 09:06:06;;;;;;;33.85;6.35;;;10.90;80.50;;;;;;5074762;28;20057;-71
2021/03/11 09:08:33;;;;;;;35.33;7.37;;;10.90;80.70;;;;;;5075005;28;20051;-71
2021/03/11 09:11:09;;;;;;;34.23;6.40;;;11.00;81.00;;;;;;5074051;28;20055;-71
2021/03/11 09:13:38;;;;;;;29.90;6.20;;;11.00;80.40;;;;;;5074911;28;20052;-72
2021/03/11 09:16:04;;;;;;;31.63;6.37;;;11.10;80.80;;;;;;5074907;28;20491;-71
2021/03/11 09:18:30;;;;;;;32.07;6.20;;;11.10;79.80;;;;;;5074159;28;20055;-71
2021/03/11 09:20:58;;;;;;;29.10;6.60;;;11.10;79.30;;;;;;5074660;28;20072;-72
2021/03/11 09:23:40;;;;;;;30.13;6.30;;;11.10;79.10;;;;;;5074542;28;20055;-72
2021/03/11 09:26:22;;;;;;;32.97;7.20;;;11.10;78.60;;;;;;5074125;28;20053;-71
2021/03/11 09:28:48;;;;;;;45.85;7.20;;;11.10;78.50;;;;;;5074565;28;20049;-72
2021/03/11 09:31:27;;;;;;;32.93;7.20;;;11.20;78.40;;;;;;5073646;28;20423;-70
2021/03/11 09:33:59;;;;;;;34.30;6.70;;;11.30;77.50;;;;;;5074304;28;20056;-71
2021/03/11 09:36:25;;;;;;;32.05;6.32;;;11.30;77.60;;;;;;5074031;28;20067;-72
2021/03/11 09:38:51;;;;;;;31.40;8.20;;;11.40;77.00;;;;;;5073564;28;20481;-72
2021/03/11 09:41:24;;;;;;;32.17;6.80;;;11.40;76.40;;;;;;5074176;28;20048;-70
2021/03/11 09:43:50;;;;;;;34.07;6.63;;;11.40;75.60;;;;;;5074232;28;20048;-69
2021/03/11 09:46:19;;;;;;;30.80;6.67;;;11.50;76.00;;;;;;5073231;28;20052;-70
2021/03/11 09:48:45;;;;;;;28.43;6.10;;;11.50;75.60;;;;;;5073850;28;20052;-70
2021/03/11 09:51:15;;;;;;;26.57;6.87;;;11.60;75.20;;;;;;5074085;28;20054;-70
2021/03/11 09:53:50;;;;;;;29.43;7.17;;;11.60;74.40;;;;;;5073325;28;20056;-70
2021/03/11 09:56:19;;;;;;;28.97;6.20;;;11.60;74.90;;;;;;5073972;28;20135;-71
2021/03/11 09:58:53;;;;;;;30.67;6.67;;;11.60;74.70;;;;;;5072989;28;20049;-71
2021/03/11 10:01:36;;;;;;;29.47;6.07;;;11.60;74.00;;;;;;5073309;28;20432;-70
2021/03/11 10:04:12;;;;;;;30.80;6.07;;;11.60;74.30;;;;;;5071835;28;20409;-70
2021/03/11 10:06:47;;;;;;;29.50;6.73;;;11.60;73.20;;;;;;5071191;28;20436;-70
2021/03/11 10:09:13;;;;;;;34.40;6.53;;;11.50;73.10;;;;;;5073373;28;20527;-71
2021/03/11 10:11:47;;;;;;;28.40;5.63;;;11.50;73.80;;;;;;5073515;28;20049;-71
2021/03/11 10:14:18;;;;;;;33.73;5.83;;;11.50;72.80;;;;;;5071711;28;20051;-71
2021/03/11 10:16:47;;;;;;;27.38;5.88;;;11.40;73.40;;;;;;5073929;28;20398;-71
2021/03/11 10:19:21;;;;;;;31.40;5.93;;;11.40;74.10;;;;;;5073480;28;20061;-69
2021/03/11 10:21:56;;;;;;;33.10;5.67;;;11.30;73.90;;;;;;5072692;28;20136;-71
2021/03/11 10:24:32;;;;;;;40.07;7.07;;;11.20;74.80;;;;;;5072892;28;20394;-70
2021/03/11 10:26:59;;;;;;;33.03;7.17;;;11.10;74.90;;;;;;5072712;28;20063;-70
2021/03/11 10:29:30;;;;;;;28.40;6.40;;;11.00;75.50;;;;;;5073242;28;20431;-70
2021/03/11 10:32:02;;;;;;;39.55;7.78;;;11.00;76.40;;;;;;5073320;28;20515;-71
2021/03/11 10:34:27;;;;;;;33.63;6.75;;;10.90;76.60;;;;;;5072690;28;20123;-71
2021/03/11 10:36:58;;;;;;;28.67;6.33;;;10.80;76.70;;;;;;5072706;28;20535;-69
2021/03/11 10:39:25;;;;;;;34.95;6.72;;;10.70;77.70;;;;;;5070272;28;20400;-69
2021/03/11 10:42:05;;;;;;;32.50;5.73;;;10.60;78.50;;;;;;5071784;28;20048;-69
2021/03/11 10:44:35;;;;;;;24.73;5.93;;;10.40;79.50;;;;;;5070776;28;20310;-70
2021/03/11 10:47:16;;;;;;;26.30;5.73;;;10.20;80.30;;;;;;5072413;28;20402;-70
2021/03/11 10:49:42;;;;;;;28.87;5.30;;;10.00;81.60;;;;;;5071413;28;20048;-69
2021/03/11 10:52:09;;;;;;;26.60;4.90;;;9.90;81.60;;;;;;5072730;28;20291;-69
2021/03/11 10:54:35;;;;;;;27.00;4.67;;;9.70;82.00;;;;;;5072473;28;20299;-68
2021/03/11 10:57:07;;;;;;;30.07;5.80;;;9.60;82.80;;;;;;5070929;28;20353;-68
2021/03/11 11:00:02;;;;;;;28.97;6.27;;;9.50;83.30;;;;;;5072381;28;20052;-70
2021/03/11 11:02:29;;;;;;;25.00;5.93;;;9.40;85.50;;;;;;5071185;28;20342;-69
2021/03/11 11:05:00;;;;;;;23.90;5.47;;;9.30;84.80;;;;;;5069742;28;20302;-67
2021/03/11 11:07:26;;;;;;;29.03;5.77;;;9.30;85.30;;;;;;5072355;28;20329;-68
2021/03/11 11:09:53;;;;;;;27.67;6.10;;;9.20;85.70;;;;;;5071316;28;20778;-70
2021/03/11 11:12:20;;;;;;;34.00;7.10;;;9.10;86.20;;;;;;5072379;28;20299;-70
2021/03/11 11:14:48;;;;;;;28.50;6.93;;;9.10;86.70;;;;;;5072206;28;20302;-71
2021/03/11 11:17:14;;;;;;;34.93;6.40;;;9.00;87.40;;;;;;5071518;28;20295;-69
2021/03/11 11:19:41;;;;;;;28.47;5.40;;;9.00;87.60;;;;;;5071688;28;20836;-69
2021/03/11 11:22:08;;;;;;;35.47;6.60;;;8.90;88.10;;;;;;5071936;28;20297;-68
2021/03/11 11:24:38;;;;;;;30.50;5.60;;;8.90;88.80;;;;;;5071291;28;20360;-68
2021/03/11 11:27:04;;;;;;;30.40;5.43;;;8.90;88.70;;;;;;5071785;28;20379;-69
2021/03/11 11:29:31;;;;;;;33.17;8.83;;;8.80;88.70;;;;;;5071906;28;20829;-68
2021/03/11 11:31:56;;;;;;;34.23;6.87;;;8.90;89.20;;;;;;5071147;28;20306;-70
2021/03/11 11:34:22;;;;;;;29.63;6.10;;;8.80;89.20;;;;;;5071661;28;20306;-69
2021/03/11 11:36:48;;;;;;;37.87;6.83;;;8.90;89.60;;;;;;5068703;28;20048;-70
2021/03/11 11:39:14;;;;;;;32.57;5.77;;;8.80;89.60;;;;;;5070844;28;20186;-71
2021/03/11 11:41:41;;;;;;;32.43;6.13;;;8.80;90.10;;;;;;5071237;28;20151;-69
2021/03/11 11:44:07;;;;;;;32.13;6.10;;;8.80;90.00;;;;;;5071014;28;20326;-70
2021/03/11 11:46:33;;;;;;;37.37;6.60;;;8.80;90.10;;;;;;5071753;28;20306;-70
2021/03/11 11:49:00;;;;;;;27.07;6.30;;;8.80;90.00;;;;;;5071305;28;20812;-69
2021/03/11 11:51:26;;;;;;;33.00;6.97;;;8.70;90.10;;;;;;5070663;28;20369;-69
2021/03/11 11:53:52;;;;;;;33.33;5.83;;;8.80;90.10;;;;;;5071096;28;20349;-70
2021/03/11 11:56:18;;;;;;;28.90;6.10;;;8.70;90.30;;;;;;5071180;28;20298;-72
2021/03/11 11:58:45;;;;;;;31.93;6.53;;;8.70;90.10;;;;;;5070662;28;20135;-71
2021/03/11 12:01:11;;;;;;;31.57;6.53;;;8.70;90.20;;;;;;5071112;28;20298;-69
2021/03/11 12:03:37;;;;;;;37.80;6.53;;;8.80;90.30;;;;;;5071119;28;20317;-70
2021/03/11 12:06:04;;;;;;;29.90;6.47;;;8.80;90.30;;;;;;5069847;28;20298;-70
2021/03/11 12:08:30;;;;;;;38.00;6.23;;;8.80;90.60;;;;;;5071080;28;20051;-70
2021/03/11 12:10:56;;;;;;;33.60;7.13;;;8.80;90.30;;;;;;5070624;28;20290;-69
2021/03/11 12:13:22;;;;;;;30.17;6.30;;;8.70;90.50;;;;;;5069915;28;20521;-70
2021/03/11 12:15:48;;;;;;;34.60;5.87;;;8.80;90.50;;;;;;5070825;28;20286;-70
2021/03/11 12:18:14;;;;;;;37.00;8.90;;;8.80;90.50;;;;;;5071016;28;20401;-69
2021/03/11 12:20:40;;;;;;;31.53;6.77;;;8.80;90.40;;;;;;5067721;28;20052;-69
2021/03/11 12:23:06;;;;;;;38.93;6.60;;;8.80;90.50;;;;;;5071060;28;20294;-69
2021/03/11 12:25:32;;;;;;;26.30;6.37;;;8.80;90.40;;;;;;5071186;28;20342;-68
2021/03/11 12:27:57;;;;;;;38.57;9.23;;;8.90;90.40;;;;;;5069894;28;20138;-69
2021/03/11 12:30:24;;;;;;;32.90;6.40;;;8.90;90.40;;;;;;5070836;28;20165;-69
2021/03/11 12:32:49;;;;;;;35.77;7.23;;;8.90;90.40;;;;;;5070496;28;20047;-69
2021/03/11 12:35:15;;;;;;;39.10;6.70;;;8.80;90.60;;;;;;5069535;28;20287;-68
2021/03/11 12:37:41;;;;;;;32.77;7.07;;;8.80;90.70;;;;;;5070128;28;20202;-67
2021/03/11 12:40:08;;;;;;;36.47;6.83;;;8.80;90.70;;;;;;5070248;28;20822;-69
2021/03/11 12:42:34;;;;;;;35.70;7.53;;;8.80;90.80;;;;;;5070370;28;20309;-68
2021/03/11 12:45:22;;;;;;;31.67;6.37;;;8.80;90.70;;;;;;5067817;28;20282;-70
2021/03/11 12:47:48;;;;;;;31.43;6.27;;;8.80;90.80;;;;;;5070038;28;20291;-68